Time;durP1;ratioP1;P1;durP2;ratioP2;P2;SDS_P1;SDS_P2;PMS_P1;PMS_P2;Temp;Humidity;BMP_temperature;BMP_pressure;BME280_temperature;BME280_humidity;BME280_pressure;Samples;Min_cycle;Max_cycle;Signal;HPM_P1;HPM_P2
2022/12/29 00:01:47;;;;;;;21.47;12.20;;;9.80;93.40;;;;;;5048080;28;20033;-73
2022/12/29 00:04:14;;;;;;;20.97;11.00;;;10.00;93.30;;;;;;5049489;28;20037;-74
2022/12/29 00:06:40;;;;;;;21.02;11.55;;;9.90;93.10;;;;;;5048142;28;20048;-74
2022/12/29 00:09:06;;;;;;;22.38;10.57;;;10.00;93.20;;;;;;5049908;28;20024;-74
2022/12/29 00:11:32;;;;;;;19.70;10.70;;;10.00;93.00;;;;;;5050078;28;20082;-73
2022/12/29 00:16:44;;;;;;;25.75;11.43;;;10.10;92.70;;;;;;5048494;28;20070;-74
2022/12/29 00:35:07;;;;;;;21.70;10.18;;;10.20;92.60;;;;;;5049445;28;20037;-74
2022/12/29 00:36:05;;;;;;;18.13;8.50;;;10.30;91.90;;;;;;5046374;28;20047;-74
2022/12/29 00:44:04;;;;;;;22.33;9.15;;;10.30;91.80;;;;;;5049069;28;20110;-73
2022/12/29 00:46:30;;;;;;;20.17;8.27;;;10.30;91.80;;;;;;5050040;28;20017;-73
2022/12/29 00:51:40;;;;;;;20.58;8.40;;;10.30;91.60;;;;;;5045103;28;20043;-73
2022/12/29 00:54:06;;;;;;;16.60;8.33;;;10.30;91.70;;;;;;5048227;28;20037;-74
2022/12/29 00:56:32;;;;;;;10.90;7.50;;;10.30;91.70;;;;;;5049401;28;20037;-73
2022/12/29 00:59:02;;;;;;;12.33;7.30;;;10.30;91.70;;;;;;5049756;28;20549;-73
2022/12/29 01:01:28;;;;;;;16.50;7.40;;;10.40;91.70;;;;;;5048796;28;20104;-74
2022/12/29 01:03:53;;;;;;;14.83;7.73;;;10.30;91.50;;;;;;5049014;28;20104;-74
2022/12/29 01:06:19;;;;;;;13.90;7.53;;;10.30;91.60;;;;;;5048721;28;20111;-74
2022/12/29 01:08:45;;;;;;;15.73;7.47;;;10.30;91.40;;;;;;5048630;28;20021;-74
2022/12/29 01:11:12;;;;;;;21.23;7.60;;;10.30;91.70;;;;;;5047791;28;20033;-74
2022/12/29 01:13:38;;;;;;;11.50;6.40;;;10.30;91.30;;;;;;5048529;28;20063;-74
2022/12/29 01:16:05;;;;;;;10.77;6.60;;;10.30;91.30;;;;;;5048238;28;20016;-74
2022/12/29 01:18:31;;;;;;;11.68;6.15;;;10.20;91.40;;;;;;5048870;28;20051;-74
2022/12/29 01:21:05;;;;;;;13.02;6.07;;;10.30;91.10;;;;;;5048800;28;20017;-74
2022/12/29 01:23:31;;;;;;;12.48;5.88;;;10.30;90.60;;;;;;5048908;28;20060;-75
2022/12/29 01:25:57;;;;;;;9.68;5.53;;;10.40;90.60;;;;;;5049256;28;20059;-74
2022/12/29 01:28:23;;;;;;;19.00;6.53;;;10.50;90.10;;;;;;5049150;28;20044;-74
2022/12/29 01:30:49;;;;;;;11.45;5.07;;;10.50;89.90;;;;;;5048885;28;20029;-74
2022/12/29 01:33:14;;;;;;;13.70;5.97;;;10.50;90.10;;;;;;5048494;28;20512;-74
2022/12/29 01:35:40;;;;;;;14.27;6.10;;;10.50;90.10;;;;;;5049288;28;20098;-74
2022/12/29 01:38:05;;;;;;;11.73;5.53;;;10.50;90.30;;;;;;5048322;28;20067;-74
2022/12/29 01:40:31;;;;;;;12.57;5.80;;;10.50;90.30;;;;;;5048569;28;20583;-74
2022/12/29 01:42:57;;;;;;;10.25;6.45;;;10.40;90.40;;;;;;5048419;28;20548;-74
2022/12/29 01:45:22;;;;;;;16.40;5.93;;;10.40;90.60;;;;;;5046634;28;20041;-74
2022/12/29 01:47:53;;;;;;;17.57;5.87;;;10.40;90.40;;;;;;5049305;28;20111;-74
2022/12/29 01:50:36;;;;;;;11.98;5.50;;;10.40;90.40;;;;;;5048886;28;20032;-74
2022/12/29 01:53:05;;;;;;;11.38;5.80;;;10.30;90.70;;;;;;5046676;28;20033;-74
2022/12/29 01:55:36;;;;;;;14.43;5.75;;;10.30;90.60;;;;;;5047702;28;20265;-74
2022/12/29 01:58:05;;;;;;;16.52;6.30;;;10.40;90.40;;;;;;5048165;28;20025;-74
2022/12/29 02:00:31;;;;;;;8.98;5.38;;;10.40;90.30;;;;;;5047834;28;20035;-74
2022/12/29 02:02:57;;;;;;;15.20;5.70;;;10.40;90.30;;;;;;5048250;28;20115;-74
2022/12/29 02:05:38;;;;;;;11.97;5.87;;;10.40;90.40;;;;;;5048053;28;20138;-74
2022/12/29 02:08:04;;;;;;;23.83;6.72;;;10.40;90.60;;;;;;5048307;28;20025;-74
2022/12/29 02:10:32;;;;;;;10.43;5.18;;;10.40;90.40;;;;;;5048251;28;20040;-74
2022/12/29 02:12:58;;;;;;;11.25;5.53;;;10.40;90.40;;;;;;5048700;28;20067;-74
2022/12/29 02:15:47;;;;;;;13.70;5.63;;;10.40;90.40;;;;;;5046546;28;20481;-74
2022/12/29 02:18:19;;;;;;;10.98;5.82;;;10.40;90.30;;;;;;5027740;28;20033;-74
2022/12/29 02:21:12;;;;;;;12.70;6.25;;;10.40;90.40;;;;;;5044601;28;20049;-74
2022/12/29 02:24:16;;;;;;;14.32;6.15;;;10.40;90.30;;;;;;5041688;28;20067;-74
2022/12/29 02:27:06;;;;;;;10.38;6.05;;;10.40;90.30;;;;;;5020987;28;20378;-74
2022/12/29 02:30:04;;;;;;;10.95;5.80;;;10.30;90.50;;;;;;5046568;28;20074;-74
2022/12/29 02:32:56;;;;;;;14.02;6.30;;;10.30;90.40;;;;;;5046285;28;20117;-74
2022/12/29 02:35:40;;;;;;;8.40;5.93;;;10.30;90.50;;;;;;5046937;28;20064;-74
2022/12/29 02:38:13;;;;;;;15.30;5.88;;;10.30;90.60;;;;;;5043836;28;20543;-74
2022/12/29 02:40:38;;;;;;;9.68;5.95;;;10.20;90.70;;;;;;5048288;28;20108;-74
2022/12/29 02:43:14;;;;;;;13.23;6.53;;;10.20;90.90;;;;;;5047626;28;20447;-74
2022/12/29 02:46:07;;;;;;;15.00;6.80;;;10.20;90.80;;;;;;5046172;28;20435;-74
2022/12/29 02:48:48;;;;;;;11.98;6.68;;;10.10;90.90;;;;;;5047666;28;20075;-74
2022/12/29 02:51:24;;;;;;;18.58;6.07;;;10.10;91.30;;;;;;5045035;28;20098;-74
2022/12/29 02:56:35;;;;;;;14.15;6.10;;;10.10;90.70;;;;;;5048037;28;20091;-74
2022/12/29 02:59:01;;;;;;;14.87;6.80;;;10.10;90.90;;;;;;5047947;28;20481;-74
2022/12/29 03:01:30;;;;;;;16.23;6.77;;;10.20;91.00;;;;;;5047088;28;20040;-74
2022/12/29 03:04:39;;;;;;;16.50;6.55;;;10.10;90.90;;;;;;5047391;28;20029;-74
2022/12/29 03:07:22;;;;;;;9.52;5.70;;;10.10;91.00;;;;;;5045245;28;20032;-74
2022/12/29 03:10:14;;;;;;;13.80;6.53;;;10.00;91.40;;;;;;5045661;28;20025;-74
2022/12/29 03:16:21;;;;;;;10.75;6.38;;;10.10;91.10;;;;;;5043998;28;20036;-74
2022/12/29 03:19:06;;;;;;;17.65;6.53;;;10.10;91.00;;;;;;5030384;28;20109;-74
2022/12/29 03:24:51;;;;;;;15.25;5.80;;;10.10;91.20;;;;;;5044246;28;20036;-73
2022/12/29 03:27:25;;;;;;;13.02;5.80;;;10.10;91.10;;;;;;5047261;28;20047;-74
2022/12/29 03:29:57;;;;;;;12.13;5.63;;;10.10;91.00;;;;;;5047820;28;20080;-74
2022/12/29 03:32:31;;;;;;;10.45;6.07;;;10.10;90.90;;;;;;5047574;28;20032;-73
2022/12/29 03:34:58;;;;;;;15.93;6.70;;;10.10;91.00;;;;;;5044764;28;20045;-73
2022/12/29 03:37:29;;;;;;;14.27;5.40;;;10.10;91.10;;;;;;5047751;28;20021;-73
2022/12/29 03:39:55;;;;;;;16.58;5.38;;;10.10;91.10;;;;;;5048087;28;20099;-73
2022/12/29 03:42:26;;;;;;;14.75;5.93;;;10.10;91.10;;;;;;5046841;28;20036;-73
2022/12/29 03:44:55;;;;;;;15.40;5.93;;;10.10;91.00;;;;;;5047064;28;20083;-73
2022/12/29 03:47:22;;;;;;;24.25;5.93;;;10.10;90.90;;;;;;5045192;28;20066;-73
2022/12/29 03:49:48;;;;;;;14.85;5.60;;;10.20;90.30;;;;;;5047252;28;20037;-73
2022/12/29 03:52:14;;;;;;;11.40;5.03;;;10.20;90.60;;;;;;5050748;28;20359;-73
2022/12/29 03:54:39;;;;;;;12.77;5.10;;;10.30;90.40;;;;;;5050844;28;20043;-73
2022/12/29 03:57:05;;;;;;;15.07;4.97;;;10.20;90.80;;;;;;5051120;28;20021;-73
2022/12/29 03:59:31;;;;;;;12.47;5.40;;;10.30;90.20;;;;;;5050719;28;20035;-73
2022/12/29 04:01:56;;;;;;;11.90;4.43;;;10.30;90.30;;;;;;5051077;28;20025;-73
2022/12/29 04:04:22;;;;;;;12.07;5.47;;;10.30;90.50;;;;;;5051342;28;20088;-73
2022/12/29 04:06:47;;;;;;;10.03;5.33;;;10.30;90.60;;;;;;5049016;28;20036;-73
2022/12/29 04:09:13;;;;;;;14.33;5.60;;;10.30;90.10;;;;;;5050298;28;20617;-73
2022/12/29 04:11:39;;;;;;;11.20;5.00;;;10.40;89.80;;;;;;5049764;28;20083;-73
2022/12/29 04:14:04;;;;;;;13.00;5.13;;;10.40;89.30;;;;;;5050383;28;20120;-73
2022/12/29 04:16:30;;;;;;;10.30;4.70;;;10.40;89.30;;;;;;5048473;28;20428;-73
2022/12/29 04:18:55;;;;;;;8.30;4.53;;;10.50;89.20;;;;;;5050653;28;20090;-74
2022/12/29 04:21:21;;;;;;;11.07;5.13;;;10.40;89.10;;;;;;5050645;28;20028;-74
2022/12/29 04:23:47;;;;;;;10.57;4.80;;;10.40;89.20;;;;;;5050894;28;20445;-74
2022/12/29 04:26:12;;;;;;;11.47;4.97;;;10.40;89.30;;;;;;5050231;28;20041;-74
2022/12/29 04:28:38;;;;;;;13.17;4.93;;;10.40;88.80;;;;;;5050197;28;20021;-74
2022/12/29 04:31:04;;;;;;;15.30;5.57;;;10.40;88.50;;;;;;5048844;28;20507;-73
2022/12/29 04:33:30;;;;;;;9.40;4.20;;;10.40;88.70;;;;;;5049405;28;20041;-73
2022/12/29 04:35:56;;;;;;;12.32;4.78;;;10.40;87.90;;;;;;5048569;28;20151;-73
2022/12/29 04:38:23;;;;;;;7.03;4.43;;;10.50;88.40;;;;;;5047802;28;20603;-73
2022/12/29 04:40:50;;;;;;;13.48;4.38;;;10.40;87.70;;;;;;5049349;28;20029;-74
2022/12/29 04:43:19;;;;;;;15.50;4.72;;;10.50;87.90;;;;;;5049162;28;20053;-74
2022/12/29 04:45:46;;;;;;;10.57;4.70;;;10.50;87.10;;;;;;5047803;28;20017;-74
2022/12/29 04:48:12;;;;;;;12.02;4.60;;;10.50;87.60;;;;;;5048366;28;20035;-73
2022/12/29 04:50:39;;;;;;;9.75;4.32;;;10.50;87.40;;;;;;5049399;28;20096;-73
2022/12/29 04:53:04;;;;;;;12.02;4.68;;;10.40;87.20;;;;;;5048201;28;20041;-73
2022/12/29 04:55:30;;;;;;;8.03;4.10;;;10.50;86.60;;;;;;5049306;28;20021;-74
2022/12/29 04:57:55;;;;;;;10.87;4.60;;;10.50;87.60;;;;;;5048441;28;20024;-74
2022/12/29 05:00:21;;;;;;;9.30;5.30;;;10.50;87.70;;;;;;5048566;28;20459;-74
2022/12/29 05:02:47;;;;;;;12.43;4.67;;;10.40;87.10;;;;;;5043685;28;20057;-74
2022/12/29 05:05:13;;;;;;;8.20;4.53;;;10.50;87.00;;;;;;5048742;28;20021;-74
2022/12/29 05:07:38;;;;;;;14.47;4.53;;;10.50;87.00;;;;;;5049506;28;20670;-74
2022/12/29 05:10:05;;;;;;;12.97;4.63;;;10.50;86.30;;;;;;5047782;28;20024;-74
2022/12/29 05:12:32;;;;;;;10.02;4.40;;;10.50;86.60;;;;;;5048207;28;20037;-74
2022/12/29 05:14:57;;;;;;;12.73;4.35;;;10.40;86.50;;;;;;5047964;28;20122;-74
2022/12/29 05:17:23;;;;;;;15.23;4.13;;;10.50;86.20;;;;;;5049133;28;20029;-73
2022/12/29 05:19:48;;;;;;;7.67;3.50;;;10.50;86.10;;;;;;5046856;28;20580;-73
2022/12/29 05:22:14;;;;;;;15.90;4.50;;;10.50;85.50;;;;;;5047859;28;20462;-73
2022/12/29 05:24:40;;;;;;;15.73;4.63;;;10.50;85.40;;;;;;5046764;28;20913;-74
2022/12/29 05:27:05;;;;;;;12.30;4.27;;;10.50;85.30;;;;;;5047675;28;20362;-74
2022/12/29 05:29:31;;;;;;;9.97;3.77;;;10.50;85.50;;;;;;5047924;28;20116;-73
2022/12/29 05:31:56;;;;;;;9.30;4.23;;;10.50;85.20;;;;;;5048057;28;20473;-74
2022/12/29 05:34:22;;;;;;;9.07;3.43;;;10.40;85.80;;;;;;5046821;28;20028;-74
2022/12/29 05:36:48;;;;;;;13.83;4.67;;;10.50;84.40;;;;;;5044807;28;20483;-73
2022/12/29 05:39:13;;;;;;;10.97;4.10;;;10.50;85.10;;;;;;5047757;28;20029;-73
2022/12/29 05:41:39;;;;;;;7.87;3.80;;;10.50;85.30;;;;;;5046230;28;20033;-74
2022/12/29 05:44:04;;;;;;;12.50;5.17;;;10.50;85.10;;;;;;5047671;28;20132;-74
2022/12/29 05:46:30;;;;;;;6.80;3.67;;;10.40;84.90;;;;;;5048784;28;20574;-74
2022/12/29 05:48:56;;;;;;;9.18;3.60;;;10.50;84.50;;;;;;5048035;28;20033;-74
2022/12/29 05:51:21;;;;;;;8.03;3.17;;;10.50;84.40;;;;;;5045813;28;20506;-74
2022/12/29 05:53:47;;;;;;;7.63;3.73;;;10.50;84.50;;;;;;5048290;28;20112;-74
2022/12/29 05:56:12;;;;;;;11.57;4.17;;;10.50;85.60;;;;;;5047118;28;20063;-74
2022/12/29 05:58:38;;;;;;;16.53;3.50;;;10.40;85.20;;;;;;5048036;28;20428;-74
2022/12/29 06:01:04;;;;;;;6.63;3.90;;;10.50;84.40;;;;;;5047704;28;20024;-74
2022/12/29 06:03:29;;;;;;;7.50;3.80;;;10.40;85.50;;;;;;5047468;28;20238;-74
2022/12/29 06:05:55;;;;;;;9.47;3.33;;;10.50;85.00;;;;;;5047720;28;20036;-74
2022/12/29 06:08:20;;;;;;;9.20;3.60;;;10.40;85.10;;;;;;5046616;28;20467;-74
2022/12/29 06:10:46;;;;;;;8.93;3.33;;;10.60;84.10;;;;;;5047183;28;20029;-74
2022/12/29 06:13:12;;;;;;;10.13;3.20;;;10.60;84.30;;;;;;5046854;28;20045;-74
2022/12/29 06:15:37;;;;;;;10.27;4.93;;;10.60;83.30;;;;;;5048309;28;20048;-74
2022/12/29 06:18:03;;;;;;;12.57;4.20;;;10.50;84.30;;;;;;5047386;28;20064;-74
2022/12/29 06:20:28;;;;;;;5.67;3.00;;;10.50;84.40;;;;;;5047378;28;20025;-74
2022/12/29 06:22:54;;;;;;;7.93;3.03;;;10.50;84.30;;;;;;5046985;28;20042;-74
2022/12/29 06:25:20;;;;;;;8.80;3.83;;;10.50;83.80;;;;;;5046793;28;20028;-74
2022/12/29 06:27:45;;;;;;;10.05;3.25;;;10.60;82.70;;;;;;5047248;28;20037;-74
2022/12/29 06:30:12;;;;;;;8.70;3.83;;;10.60;82.80;;;;;;5045697;28;20064;-74
2022/12/29 06:32:38;;;;;;;;;;;10.60;83.50;;;;;;5046302;28;20070;-74
2022/12/29 06:35:05;;;;;;;12.50;4.38;;;10.50;83.70;;;;;;5047533;28;19909;-74
2022/12/29 06:37:31;;;;;;;7.63;3.30;;;10.50;83.90;;;;;;5044465;28;20386;-74
2022/12/29 06:39:57;;;;;;;7.17;3.20;;;10.60;83.10;;;;;;5046618;28;20032;-74
2022/12/29 06:42:22;;;;;;;9.10;3.70;;;10.60;82.60;;;;;;5046408;28;20283;-74
2022/12/29 06:44:48;;;;;;;9.33;3.00;;;10.60;83.30;;;;;;5046893;28;20040;-74
2022/12/29 06:47:14;;;;;;;6.67;3.20;;;10.50;82.60;;;;;;5046767;28;20373;-74
2022/12/29 06:49:39;;;;;;;9.23;3.20;;;10.60;82.60;;;;;;5046558;28;20025;-74
2022/12/29 06:52:05;;;;;;;8.43;3.43;;;10.50;84.10;;;;;;5046657;28;20075;-74
2022/12/29 06:54:31;;;;;;;11.17;3.77;;;10.50;83.10;;;;;;5047630;28;20559;-74
2022/12/29 06:56:57;;;;;;;9.77;3.80;;;10.50;83.50;;;;;;5046851;28;20036;-74
2022/12/29 06:59:24;;;;;;;6.65;3.25;;;10.60;82.90;;;;;;5047209;28;20036;-75
2022/12/29 07:01:49;;;;;;;5.32;3.72;;;10.70;81.80;;;;;;5047463;28;20025;-74
2022/12/29 07:04:15;;;;;;;7.53;3.17;;;10.60;82.50;;;;;;5046830;28;20082;-75
2022/12/29 07:06:40;;;;;;;11.20;3.73;;;10.60;82.20;;;;;;5045661;28;20029;-75
2022/12/29 07:09:07;;;;;;;6.87;3.00;;;10.50;81.60;;;;;;5047070;28;20029;-74
2022/12/29 07:11:33;;;;;;;11.05;3.95;;;10.60;81.90;;;;;;5046779;28;20412;-74
2022/12/29 07:13:59;;;;;;;8.63;3.03;;;10.60;82.70;;;;;;5046873;28;20065;-74
2022/12/29 07:16:24;;;;;;;8.95;3.22;;;10.50;81.80;;;;;;5046978;28;20500;-74
2022/12/29 07:18:51;;;;;;;9.80;3.60;;;10.60;81.50;;;;;;5046469;28;20045;-74
2022/12/29 07:21:17;;;;;;;8.02;3.40;;;10.50;82.20;;;;;;5044714;28;20033;-74
2022/12/29 07:23:43;;;;;;;6.65;3.28;;;10.50;82.20;;;;;;5046577;28;20029;-74
2022/12/29 07:26:12;;;;;;;5.93;2.77;;;10.40;82.50;;;;;;5048988;28;20029;-74
2022/12/29 07:28:38;;;;;;;9.40;3.28;;;10.50;81.70;;;;;;5050599;28;20530;-74
2022/12/29 07:31:05;;;;;;;7.77;3.30;;;10.60;82.00;;;;;;5049777;28;20032;-74
2022/12/29 07:33:31;;;;;;;9.52;3.10;;;10.70;82.20;;;;;;5049623;28;20301;-74
2022/12/29 07:35:57;;;;;;;;;;;10.70;81.60;;;;;;5047018;28;20064;-74
2022/12/29 07:38:23;;;;;;;10.05;2.90;;;10.80;81.10;;;;;;5049620;28;19955;-74
2022/12/29 07:40:49;;;;;;;9.53;3.53;;;10.80;81.60;;;;;;5050782;28;20814;-74
2022/12/29 07:43:14;;;;;;;6.43;3.47;;;10.80;80.70;;;;;;5049763;28;20503;-73
2022/12/29 07:45:40;;;;;;;11.50;3.20;;;10.80;82.40;;;;;;5049933;28;20480;-74
2022/12/29 07:48:09;;;;;;;7.80;3.33;;;11.00;79.80;;;;;;5050438;28;20443;-74
2022/12/29 07:50:35;;;;;;;5.53;3.65;;;11.10;80.40;;;;;;5050010;28;20028;-74
2022/12/29 07:53:01;;;;;;;8.48;3.80;;;11.10;81.00;;;;;;5050129;28;20068;-74
2022/12/29 07:55:26;;;;;;;5.25;3.40;;;11.20;80.60;;;;;;5049865;28;20052;-74
2022/12/29 07:57:56;;;;;;;16.30;3.37;;;11.30;80.80;;;;;;5050964;28;20498;-74
2022/12/29 08:00:22;;;;;;;6.35;3.03;;;11.40;78.60;;;;;;5049007;28;20047;-74
2022/12/29 08:02:48;;;;;;;9.65;3.55;;;11.50;78.30;;;;;;5050296;28;20031;-75
2022/12/29 08:05:13;;;;;;;19.03;4.90;;;11.60;78.90;;;;;;5049894;28;20033;-74
2022/12/29 08:07:39;;;;;;;9.90;3.40;;;11.90;78.10;;;;;;5049518;28;20291;-75
2022/12/29 08:10:05;;;;;;;7.13;3.30;;;12.60;77.70;;;;;;5045220;28;20025;-75
2022/12/29 08:12:31;;;;;;;7.28;3.55;;;12.70;75.10;;;;;;5044368;28;20067;-74
2022/12/29 08:14:56;;;;;;;11.87;4.23;;;12.70;77.10;;;;;;5040224;28;20553;-75
2022/12/29 08:17:22;;;;;;;10.50;3.67;;;12.50;75.70;;;;;;5049329;28;20036;-74
2022/12/29 08:19:48;;;;;;;10.97;4.03;;;12.50;75.20;;;;;;5050170;28;20025;-74
2022/12/29 08:22:14;;;;;;;17.87;4.07;;;12.50;74.90;;;;;;5049117;28;20489;-75
2022/12/29 08:24:40;;;;;;;;;;;12.50;75.30;;;;;;5045704;28;20112;-74
2022/12/29 08:27:06;;;;;;;9.43;3.80;;;12.40;75.10;;;;;;5039954;28;19988;-74
2022/12/29 08:29:31;;;;;;;10.65;3.25;;;12.40;75.60;;;;;;5045489;28;20471;-74
2022/12/29 08:31:57;;;;;;;8.10;3.70;;;12.30;76.50;;;;;;5046569;28;20117;-74
2022/12/29 08:34:23;;;;;;;14.20;4.07;;;12.20;76.20;;;;;;5048563;28;20116;-74
2022/12/29 08:36:48;;;;;;;11.57;3.77;;;12.20;76.80;;;;;;5044906;28;20039;-74
2022/12/29 08:39:14;;;;;;;11.13;3.70;;;12.10;76.90;;;;;;5047179;28;20451;-73
2022/12/29 08:41:39;;;;;;;6.03;3.27;;;12.10;76.60;;;;;;5043900;28;20881;-73
2022/12/29 08:44:05;;;;;;;10.20;3.97;;;12.20;77.80;;;;;;5045034;28;20033;-73
2022/12/29 08:46:31;;;;;;;6.40;2.72;;;12.20;77.50;;;;;;5049409;28;20033;-74
2022/12/29 08:48:57;;;;;;;8.00;3.27;;;12.30;77.10;;;;;;5046679;28;20416;-74
2022/12/29 08:51:23;;;;;;;10.87;4.07;;;12.40;77.60;;;;;;5046038;28;20033;-74
2022/12/29 08:53:48;;;;;;;13.03;4.10;;;12.40;77.20;;;;;;5045849;28;20477;-74
2022/12/29 08:56:14;;;;;;;10.47;3.70;;;12.90;76.60;;;;;;5043113;28;20021;-74
2022/12/29 08:58:40;;;;;;;8.73;3.67;;;14.10;75.10;;;;;;5047989;28;20291;-74
2022/12/29 09:01:06;;;;;;;5.72;3.22;;;14.60;71.90;;;;;;5046429;28;20017;-74
2022/12/29 09:03:31;;;;;;;9.23;3.33;;;14.70;69.80;;;;;;5045021;28;20047;-73
2022/12/29 09:05:57;;;;;;;7.20;3.47;;;14.90;71.20;;;;;;5048797;28;20033;-74
2022/12/29 09:08:23;;;;;;;15.20;3.20;;;15.10;69.40;;;;;;5049043;28;20032;-74
2022/12/29 09:10:49;;;;;;;8.07;2.83;;;15.10;68.40;;;;;;5046973;28;20017;-75
2022/12/29 09:13:16;;;;;;;5.70;3.08;;;14.90;69.80;;;;;;5047549;28;20044;-74
2022/12/29 09:15:42;;;;;;;5.55;2.53;;;14.70;69.20;;;;;;5048783;28;20400;-75
2022/12/29 09:18:09;;;;;;;11.02;3.72;;;14.70;69.80;;;;;;5048373;28;20025;-75
2022/12/29 09:20:34;;;;;;;14.73;3.30;;;14.90;70.30;;;;;;5048784;28;20567;-75
2022/12/29 09:23:01;;;;;;;9.77;3.20;;;14.80;70.00;;;;;;5048468;28;20104;-73
2022/12/29 09:25:28;;;;;;;11.30;3.30;;;14.80;69.80;;;;;;5047805;28;20116;-73
2022/12/29 09:27:54;;;;;;;5.82;2.80;;;14.60;70.40;;;;;;5048216;28;20535;-75
2022/12/29 09:30:22;;;;;;;9.25;3.50;;;14.50;70.80;;;;;;5047982;28;20120;-74
2022/12/29 09:32:48;;;;;;;8.82;3.28;;;14.60;70.60;;;;;;5044472;28;20052;-73
2022/12/29 09:35:15;;;;;;;5.85;2.88;;;14.40;71.70;;;;;;5046472;28;20024;-73
2022/12/29 09:37:40;;;;;;;;;;;14.40;69.50;;;;;;5045798;28;20132;-73
2022/12/29 09:40:07;;;;;;;10.15;3.92;;;14.30;71.40;;;;;;5047916;28;20007;-72
2022/12/29 09:42:40;;;;;;;6.10;2.97;;;14.30;71.10;;;;;;5047022;28;20035;-73
2022/12/29 09:45:21;;;;;;;14.15;4.72;;;14.20;70.40;;;;;;5046937;28;20036;-73
2022/12/29 09:47:47;;;;;;;8.48;3.25;;;14.20;71.00;;;;;;5042689;28;20108;-71
2022/12/29 09:50:23;;;;;;;13.80;3.70;;;14.20;71.40;;;;;;5044293;28;20100;-71
2022/12/29 09:53:01;;;;;;;5.97;2.75;;;14.10;71.70;;;;;;5045786;28;20290;-73
2022/12/29 09:55:37;;;;;;;10.23;3.25;;;14.30;70.80;;;;;;5046589;28;20580;-72
2022/12/29 09:58:09;;;;;;;8.68;3.45;;;14.30;70.50;;;;;;5043417;28;20690;-72
2022/12/29 10:00:48;;;;;;;6.63;3.33;;;14.50;68.70;;;;;;5046782;28;20025;-73
2022/12/29 10:03:22;;;;;;;6.38;2.70;;;14.80;69.10;;;;;;5045549;28;20032;-71
2022/12/29 10:05:59;;;;;;;12.98;3.42;;;15.20;68.60;;;;;;5047770;28;20025;-73
2022/12/29 10:08:42;;;;;;;10.23;3.13;;;15.20;68.40;;;;;;5046781;28;20021;-76
2022/12/29 10:11:39;;;;;;;7.97;2.55;;;15.10;68.00;;;;;;5047509;28;20033;-74
2022/12/29 10:14:26;;;;;;;7.63;3.10;;;15.30;66.70;;;;;;5041908;28;20064;-72
2022/12/29 10:17:10;;;;;;;11.50;3.17;;;15.20;66.50;;;;;;5047278;28;20021;-72
2022/12/29 10:19:56;;;;;;;9.18;3.47;;;15.30;66.50;;;;;;5033684;28;20056;-72
2022/12/29 10:22:38;;;;;;;7.25;2.65;;;15.60;67.30;;;;;;5041228;28;20048;-75
2022/12/29 10:25:14;;;;;;;10.43;2.72;;;15.50;67.60;;;;;;5043552;28;20020;-71
2022/12/29 10:27:41;;;;;;;10.98;3.13;;;15.20;66.20;;;;;;5045760;28;20029;-71
2022/12/29 10:30:11;;;;;;;;;;;15.00;66.20;;;;;;5043868;28;20056;-71
2022/12/29 10:32:47;;;;;;;6.70;2.55;;;15.20;67.50;;;;;;5041916;28;19998;-71
2022/12/29 10:35:19;;;;;;;5.57;2.22;;;15.30;66.50;;;;;;5041079;28;20033;-72
2022/12/29 10:38:11;;;;;;;7.15;2.92;;;15.20;66.30;;;;;;5041522;28;20025;-72
2022/12/29 10:40:40;;;;;;;10.20;3.05;;;15.30;67.50;;;;;;5046285;28;20028;-72
2022/12/29 10:43:38;;;;;;;11.90;3.08;;;15.30;66.60;;;;;;5044860;28;20040;-71
2022/12/29 10:46:09;;;;;;;9.18;2.70;;;15.20;67.40;;;;;;5042122;28;20074;-72
2022/12/29 10:48:35;;;;;;;5.18;2.72;;;15.20;67.20;;;;;;5044548;28;20032;-72
2022/12/29 10:51:04;;;;;;;10.52;3.58;;;15.40;67.70;;;;;;5045208;28;20029;-71
2022/12/29 10:53:45;;;;;;;9.05;3.40;;;15.50;68.40;;;;;;5045114;28;20045;-71
2022/12/29 10:56:28;;;;;;;4.65;2.45;;;15.50;67.10;;;;;;5045037;28;20104;-73
2022/12/29 10:58:58;;;;;;;5.18;2.65;;;15.40;67.40;;;;;;5046185;28;20021;-73
2022/12/29 11:01:28;;;;;;;9.98;3.40;;;15.30;67.20;;;;;;5048384;28;20031;-72
2022/12/29 11:04:26;;;;;;;8.48;2.72;;;15.10;67.10;;;;;;5046862;28;20041;-73
2022/12/29 11:06:52;;;;;;;7.13;2.78;;;15.00;68.10;;;;;;5050150;28;20284;-71
2022/12/29 11:09:29;;;;;;;7.57;2.92;;;15.00;68.70;;;;;;5050498;28;20036;-71
2022/12/29 11:11:55;;;;;;;;;;;15.00;68.30;;;;;;5050480;28;20480;-71
2022/12/29 11:14:29;;;;;;;3.92;2.80;;;14.90;69.00;;;;;;5045774;28;19916;-72
2022/12/29 11:17:04;;;;;;;4.95;3.15;;;14.80;69.50;;;;;;5051415;28;20025;-72
2022/12/29 11:19:33;;;;;;;8.30;3.15;;;14.90;69.30;;;;;;5051609;28;20565;-73
2022/12/29 11:22:21;;;;;;;9.18;2.95;;;14.80;69.20;;;;;;5049321;28;20099;-72
2022/12/29 11:24:48;;;;;;;6.28;2.92;;;14.80;69.00;;;;;;5047600;28;20025;-72
2022/12/29 11:27:22;;;;;;;;;;;14.80;70.60;;;;;;5048358;28;20025;-72
2022/12/29 11:29:49;;;;;;;8.38;3.42;;;14.90;69.40;;;;;;5049953;28;20278;-72
2022/12/29 11:32:23;;;;;;;11.88;2.75;;;14.80;70.00;;;;;;5050762;28;20236;-72
2022/12/29 11:34:49;;;;;;;7.60;2.40;;;14.80;69.50;;;;;;5048967;28;20523;-73
2022/12/29 11:37:19;;;;;;;8.50;2.55;;;14.80;68.40;;;;;;5049881;28;20060;-72
2022/12/29 11:39:59;;;;;;;7.35;2.53;;;14.80;69.50;;;;;;5050433;28;20115;-72
2022/12/29 11:42:49;;;;;;;5.90;2.60;;;14.80;68.60;;;;;;5047058;28;20036;-73
2022/12/29 11:45:20;;;;;;;12.48;2.58;;;14.90;68.40;;;;;;5044048;28;20043;-73
2022/12/29 11:47:49;;;;;;;8.88;2.53;;;14.90;68.10;;;;;;5043135;28;20067;-72
2022/12/29 11:50:23;;;;;;;11.20;3.47;;;14.90;69.20;;;;;;5046829;28;20033;-72
2022/12/29 11:52:57;;;;;;;7.65;3.33;;;14.90;69.10;;;;;;5048654;28;20033;-72
2022/12/29 11:55:26;;;;;;;11.02;3.28;;;15.00;68.90;;;;;;5047539;28;20039;-72
2022/12/29 11:57:55;;;;;;;8.23;2.85;;;15.00;68.80;;;;;;5050520;28;20083;-72
2022/12/29 12:00:26;;;;;;;7.47;2.95;;;15.00;68.70;;;;;;5050321;28;20120;-72
2022/12/29 12:03:04;;;;;;;10.18;2.88;;;15.00;68.90;;;;;;5044547;28;20103;-72
2022/12/29 12:05:54;;;;;;;9.25;2.95;;;15.00;69.90;;;;;;5049553;28;20029;-72
2022/12/29 12:08:37;;;;;;;7.00;2.60;;;15.00;69.70;;;;;;5049528;28;20065;-72
2022/12/29 12:11:18;;;;;;;10.55;2.90;;;14.90;69.80;;;;;;5041423;28;20033;-72
2022/12/29 12:13:51;;;;;;;11.40;3.30;;;14.90;69.80;;;;;;5049187;28;20090;-72
2022/12/29 12:16:27;;;;;;;8.20;2.67;;;14.90;70.00;;;;;;5045567;28;21113;-72
2022/12/29 12:18:58;;;;;;;13.73;3.38;;;14.90;69.40;;;;;;5041642;28;20029;-72
2022/12/29 12:21:48;;;;;;;8.32;2.72;;;14.80;69.60;;;;;;5048869;28;20033;-73
2022/12/29 12:24:29;;;;;;;12.15;3.38;;;14.80;70.10;;;;;;5048304;28;20550;-73
2022/12/29 12:26:56;;;;;;;10.15;2.97;;;14.80;70.30;;;;;;5033725;28;20025;-75
2022/12/29 12:29:46;;;;;;;12.10;4.63;;;14.80;70.60;;;;;;5048175;28;20036;-72
2022/12/29 12:32:19;;;;;;;11.45;2.78;;;14.70;71.30;;;;;;5041311;28;20036;-72
2022/12/29 12:34:46;;;;;;;15.85;3.33;;;14.70;71.30;;;;;;5048233;28;20100;-72
2022/12/29 12:37:26;;;;;;;10.27;3.13;;;14.60;71.70;;;;;;5045908;28;20047;-73
2022/12/29 12:40:18;;;;;;;11.95;3.35;;;14.60;72.70;;;;;;5060032;28;20038;-74
2022/12/29 12:43:08;;;;;;;15.57;3.40;;;14.50;73.00;;;;;;5044330;28;20497;-72
2022/12/29 12:46:15;;;;;;;18.08;3.58;;;14.50;73.50;;;;;;5045615;28;20032;-73
2022/12/29 12:48:50;;;;;;;13.35;4.10;;;14.50;73.60;;;;;;5034320;28;20051;-75
2022/12/29 12:51:41;;;;;;;16.58;3.72;;;14.50;74.00;;;;;;5049494;28;20025;-72
2022/12/29 12:54:15;;;;;;;10.90;3.80;;;14.50;74.60;;;;;;5049587;28;20037;-73
2022/12/29 12:56:57;;;;;;;11.52;2.88;;;14.50;74.80;;;;;;5048983;28;20382;-71
2022/12/29 12:59:58;;;;;;;19.58;4.13;;;14.50;74.70;;;;;;5042894;28;20039;-72
2022/12/29 13:02:30;;;;;;;14.77;3.45;;;14.60;74.10;;;;;;5040518;28;20090;-72
2022/12/29 13:05:17;;;;;;;11.68;3.38;;;14.50;74.80;;;;;;5051627;28;20116;-79
2022/12/29 13:07:54;;;;;;;10.55;4.03;;;14.50;74.50;;;;;;5049554;28;20412;-73
2022/12/29 13:10:38;;;;;;;;;;;14.50;75.00;;;;;;5050439;28;20555;-76
2022/12/29 13:13:15;;;;;;;12.60;3.88;;;14.50;74.60;;;;;;5046411;28;19917;-73
2022/12/29 13:16:10;;;;;;;14.27;3.85;;;14.50;74.60;;;;;;5043876;28;20083;-73
2022/12/29 13:18:41;;;;;;;11.32;3.95;;;14.50;75.50;;;;;;5043049;28;20499;-74
2022/12/29 13:21:33;;;;;;;16.52;3.53;;;14.50;74.90;;;;;;5045330;28;20033;-74
2022/12/29 13:24:15;;;;;;;15.82;4.10;;;14.60;75.20;;;;;;5045829;28;20025;-79
2022/12/29 13:26:52;;;;;;;13.82;4.13;;;14.60;74.40;;;;;;5044368;28;20436;-72
2022/12/29 13:29:27;;;;;;;10.68;3.58;;;14.60;74.50;;;;;;5046171;28;20106;-75
2022/12/29 13:32:22;;;;;;;11.52;4.38;;;14.60;73.80;;;;;;5045521;28;20072;-73
2022/12/29 13:34:51;;;;;;;15.65;3.72;;;14.60;73.80;;;;;;5048884;28;20032;-72
2022/12/29 13:37:20;;;;;;;15.57;3.47;;;14.60;74.10;;;;;;5045541;28;20055;-73